Terminal Aerodrome Forecast
Issued by NWS Glasgow, MT

Home | Current Version | Previous Version | Text Only | Print | Product List | Glossary On
Versions: 1 2 3 4 5 6 7 8 9 10 11 12 13 14 15
000
FTUS45 KGGW 032300
TAFGGW
TAF
KGGW 032320Z 0400/0424 31020G30KT P6SM SCT060
     FM040600 32017KT P6SM SCT045
     FM041200 31009KT P6SM FEW045
     FM041800 30008KT P6SM FEW250=

USA.gov is the U.S. government's official web portal to all federal, state and local government web resources and services.